Time;durP1;ratioP1;P1;durP2;ratioP2;P2;SDS_P1;SDS_P2;PMS_P1;PMS_P2;Temp;Humidity;BMP_temperature;BMP_pressure;BME280_temperature;BME280_humidity;BME280_pressure;Samples;Min_cycle;Max_cycle;Signal;HPM_P1;HPM_P2
2022/02/22 00:01:17;;;;;;;35.28;7.45;;;5.60;99.90;;;;;;5104610;28;20223;-71
2022/02/22 00:03:43;;;;;;;40.00;6.97;;;5.70;99.90;;;;;;5105327;28;20093;-71
2022/02/22 00:06:08;;;;;;;35.67;7.18;;;5.70;99.90;;;;;;5100764;28;20044;-71
2022/02/22 00:08:35;;;;;;;37.70;7.70;;;5.70;99.90;;;;;;5105392;28;20063;-71
2022/02/22 00:11:01;;;;;;;34.85;7.20;;;5.70;99.90;;;;;;5096743;28;20130;-71
2022/02/22 00:13:27;;;;;;;35.72;7.13;;;5.60;99.90;;;;;;5102439;28;20083;-71
2022/02/22 00:15:54;;;;;;;38.30;7.78;;;5.70;99.90;;;;;;5079663;28;20092;-71
2022/02/22 00:18:20;;;;;;;35.53;7.53;;;5.60;99.90;;;;;;5095925;28;20108;-71
2022/02/22 00:20:46;;;;;;;30.95;6.07;;;5.60;99.90;;;;;;5098934;28;20084;-71
2022/02/22 00:23:13;;;;;;;38.15;6.82;;;5.70;99.90;;;;;;5102650;28;20044;-71
2022/02/22 00:25:39;;;;;;;33.88;7.05;;;5.70;99.90;;;;;;5084362;28;20844;-71
2022/02/22 00:28:05;;;;;;;27.35;7.15;;;5.70;99.90;;;;;;5086548;28;20108;-71
2022/02/22 00:30:31;;;;;;;41.65;7.40;;;5.60;99.90;;;;;;5096222;28;20051;-71
2022/02/22 00:32:57;;;;;;;36.33;6.32;;;5.70;99.90;;;;;;5102921;28;20040;-71
2022/02/22 00:35:23;;;;;;;31.85;5.22;;;5.60;99.90;;;;;;5091308;28;20080;-71
2022/02/22 00:37:50;;;;;;;40.03;6.47;;;5.50;99.90;;;;;;5104186;28;20044;-71
2022/02/22 00:40:16;;;;;;;30.52;6.30;;;5.50;99.90;;;;;;5096020;28;20499;-71
2022/02/22 00:42:42;;;;;;;35.47;6.43;;;5.50;99.90;;;;;;5102533;28;20067;-71
2022/02/22 00:45:09;;;;;;;29.17;5.28;;;5.40;99.90;;;;;;5088931;28;20079;-71
2022/02/22 00:47:35;;;;;;;32.10;5.13;;;5.30;99.90;;;;;;5106423;28;20075;-71
2022/02/22 00:50:01;;;;;;;26.35;5.35;;;5.30;99.90;;;;;;5099641;28;20058;-71
2022/02/22 00:52:28;;;;;;;31.73;5.95;;;5.30;99.90;;;;;;5102596;28;20413;-71
2022/02/22 00:54:53;;;;;;;32.50;6.15;;;5.20;99.90;;;;;;5103417;28;20044;-71
2022/02/22 00:57:19;;;;;;;30.77;6.60;;;5.10;99.90;;;;;;5102420;28;20141;-71
2022/02/22 00:59:45;;;;;;;36.50;7.93;;;5.00;99.90;;;;;;5074313;28;20055;-71
2022/02/22 01:02:10;;;;;;;35.90;8.02;;;4.90;99.90;;;;;;5095116;28;20040;-71
2022/02/22 01:04:36;;;;;;;35.33;6.70;;;4.90;99.90;;;;;;5100740;28;20125;-71
2022/02/22 01:07:03;;;;;;;32.40;6.40;;;5.00;99.90;;;;;;5097941;28;20052;-71
2022/02/22 01:09:28;;;;;;;32.50;7.85;;;5.00;99.90;;;;;;5101881;28;20044;-71
2022/02/22 01:11:54;;;;;;;40.40;6.18;;;4.90;99.90;;;;;;5102835;28;20051;-71
2022/02/22 01:14:20;;;;;;;36.70;6.53;;;5.00;99.90;;;;;;5097846;28;20052;-71
2022/02/22 01:16:45;;;;;;;39.42;5.95;;;5.00;99.90;;;;;;5086746;28;20054;-71
2022/02/22 01:19:11;;;;;;;30.42;6.63;;;4.80;99.90;;;;;;5102983;28;20492;-71
2022/02/22 01:21:37;;;;;;;34.55;5.53;;;4.90;99.90;;;;;;5102657;28;20090;-71
2022/02/22 01:24:04;;;;;;;34.88;5.47;;;5.00;99.90;;;;;;5089184;28;20052;-71
2022/02/22 01:26:31;;;;;;;42.13;6.65;;;4.80;99.90;;;;;;5095810;28;20040;-71
2022/02/22 01:29:00;;;;;;;33.90;5.25;;;4.80;99.90;;;;;;5092700;28;20119;-71
2022/02/22 01:31:26;;;;;;;23.38;5.38;;;4.80;99.90;;;;;;5102381;28;20102;-71
2022/02/22 01:33:55;;;;;;;33.58;6.00;;;4.70;99.90;;;;;;5102075;28;20123;-71
2022/02/22 01:36:27;;;;;;;37.03;6.07;;;4.80;99.90;;;;;;5101689;28;20056;-71
2022/02/22 01:38:54;;;;;;;36.45;6.45;;;4.60;99.90;;;;;;5087908;28;20048;-71
2022/02/22 01:41:21;;;;;;;33.10;5.82;;;4.90;99.90;;;;;;5094099;28;20131;-71
2022/02/22 01:43:47;;;;;;;33.75;6.10;;;4.60;99.90;;;;;;5098886;28;20049;-71
2022/02/22 01:46:13;;;;;;;32.83;5.82;;;4.70;99.90;;;;;;5107124;28;20124;-71
2022/02/22 01:48:39;;;;;;;32.80;5.45;;;4.80;99.90;;;;;;5106342;28;20047;-71
2022/02/22 01:51:05;;;;;;;36.22;6.05;;;4.80;99.90;;;;;;5105120;28;20504;-71
2022/02/22 01:53:32;;;;;;;31.00;4.93;;;4.70;99.90;;;;;;5107042;28;20044;-71
2022/02/22 01:55:59;;;;;;;32.80;6.25;;;4.70;99.90;;;;;;5106555;28;20044;-71
2022/02/22 01:58:26;;;;;;;32.65;5.90;;;4.70;99.90;;;;;;5105743;28;20570;-71
2022/02/22 02:00:52;;;;;;;30.10;5.93;;;4.60;99.90;;;;;;5094185;28;20048;-71
2022/02/22 02:03:18;;;;;;;31.77;5.85;;;4.50;99.90;;;;;;5093535;28;20051;-71
2022/02/22 02:05:44;;;;;;;30.58;4.80;;;4.40;99.90;;;;;;5103317;28;20063;-71
2022/02/22 02:08:10;;;;;;;26.70;4.57;;;4.40;99.90;;;;;;5099571;28;20044;-71
2022/02/22 02:10:36;;;;;;;32.38;5.63;;;4.60;99.90;;;;;;5086973;28;20052;-71
2022/02/22 02:13:02;;;;;;;29.42;6.40;;;4.50;99.90;;;;;;5103703;28;20058;-71
2022/02/22 02:15:28;;;;;;;23.52;5.53;;;4.50;99.90;;;;;;5103200;28;20063;-71
2022/02/22 02:17:54;;;;;;;29.77;4.88;;;4.50;99.90;;;;;;5098731;28;20080;-71
2022/02/22 02:20:19;;;;;;;27.42;4.90;;;4.40;99.90;;;;;;5103640;28;20063;-71
2022/02/22 02:22:45;;;;;;;27.50;5.53;;;4.50;99.90;;;;;;5096494;28;20048;-71
2022/02/22 02:25:12;;;;;;;40.42;6.25;;;4.40;99.90;;;;;;5105163;28;20048;-71
2022/02/22 02:27:38;;;;;;;26.85;4.60;;;4.40;99.90;;;;;;5105127;28;20044;-71
2022/02/22 02:30:06;;;;;;;30.15;5.43;;;4.30;99.90;;;;;;5092194;28;20090;-71
2022/02/22 02:32:33;;;;;;;33.10;5.93;;;4.30;99.90;;;;;;5104824;28;20040;-71
2022/02/22 02:34:58;;;;;;;32.33;5.35;;;4.30;99.90;;;;;;5104979;28;20044;-71
2022/02/22 02:37:24;;;;;;;32.97;4.68;;;4.20;99.90;;;;;;5107639;28;20047;-71
2022/02/22 02:39:50;;;;;;;22.05;5.10;;;3.90;99.90;;;;;;5094981;28;20050;-71
2022/02/22 02:42:18;;;;;;;29.25;4.68;;;3.90;99.90;;;;;;5105296;28;20059;-71
2022/02/22 02:44:46;;;;;;;30.50;4.75;;;3.80;99.90;;;;;;5104665;28;20073;-71
2022/02/22 02:47:12;;;;;;;27.92;5.00;;;3.90;99.90;;;;;;5087890;28;20043;-71
2022/02/22 02:49:38;;;;;;;31.65;4.65;;;3.90;99.90;;;;;;5076844;28;20048;-71
2022/02/22 02:52:06;;;;;;;33.28;5.03;;;3.70;99.90;;;;;;5104287;28;20059;-71
2022/02/22 02:54:32;;;;;;;27.58;4.53;;;3.70;99.90;;;;;;5104281;28;20488;-71
2022/02/22 02:56:58;;;;;;;28.55;5.25;;;3.90;99.90;;;;;;5084438;28;20040;-71
2022/02/22 02:59:23;;;;;;;24.42;4.40;;;3.80;99.90;;;;;;5100883;28;20044;-71
2022/02/22 03:01:49;;;;;;;29.63;5.03;;;3.90;99.90;;;;;;5086832;28;20048;-71
2022/02/22 03:04:16;;;;;;;37.60;5.60;;;3.90;99.90;;;;;;5104422;28;20048;-71
2022/02/22 03:06:42;;;;;;;21.67;4.40;;;3.80;99.90;;;;;;5085095;28;20049;-71
2022/02/22 03:09:08;;;;;;;31.10;5.35;;;4.00;99.90;;;;;;5099404;28;20052;-71
2022/02/22 03:11:34;;;;;;;21.30;4.18;;;3.90;99.90;;;;;;5102522;28;20054;-71
2022/02/22 03:14:00;;;;;;;27.77;5.60;;;4.10;99.90;;;;;;5097327;28;20045;-71
2022/02/22 03:16:26;;;;;;;24.23;5.13;;;4.10;99.90;;;;;;5104457;28;20070;-71
2022/02/22 03:18:52;;;;;;;35.97;5.15;;;4.00;99.90;;;;;;5104107;28;20072;-71
2022/02/22 03:21:17;;;;;;;28.70;5.82;;;4.00;99.90;;;;;;5102617;28;20052;-71
2022/02/22 03:23:43;;;;;;;32.50;5.57;;;4.00;99.90;;;;;;5100523;28;20576;-71
2022/02/22 03:26:09;;;;;;;27.70;5.03;;;4.10;99.90;;;;;;5102664;28;20068;-71
2022/02/22 03:28:35;;;;;;;26.00;4.85;;;4.00;99.90;;;;;;5099584;28;20101;-71
2022/02/22 03:31:03;;;;;;;28.02;5.57;;;4.10;99.90;;;;;;5104620;28;20081;-71
2022/02/22 03:33:29;;;;;;;28.95;5.55;;;4.00;99.90;;;;;;5104827;28;20044;-71
2022/02/22 03:35:55;;;;;;;31.23;6.68;;;3.80;99.90;;;;;;5104980;28;20035;-71
2022/02/22 03:38:21;;;;;;;34.22;5.15;;;4.00;99.90;;;;;;5104412;28;20063;-71
2022/02/22 03:40:47;;;;;;;27.13;4.70;;;4.00;99.90;;;;;;5097606;28;20067;-71
2022/02/22 03:43:12;;;;;;;27.48;4.68;;;3.90;99.90;;;;;;5104222;28;20075;-71
2022/02/22 03:45:38;;;;;;;23.98;4.38;;;3.90;99.90;;;;;;5103415;28;20052;-71
2022/02/22 03:48:05;;;;;;;31.85;4.75;;;3.80;99.90;;;;;;5104878;28;20040;-71
2022/02/22 03:50:31;;;;;;;30.50;5.38;;;3.80;99.90;;;;;;5106387;28;20087;-71
2022/02/22 03:52:56;;;;;;;22.05;4.28;;;3.80;99.90;;;;;;5092293;28;20056;-71
2022/02/22 03:55:23;;;;;;;33.25;5.20;;;3.70;99.90;;;;;;5104703;28;20108;-71
2022/02/22 03:57:49;;;;;;;26.30;5.25;;;3.70;99.90;;;;;;5103933;28;20048;-71
2022/02/22 04:00:23;;;;;;;34.75;5.28;;;3.70;99.90;;;;;;5102649;28;20047;-71
2022/02/22 04:02:49;;;;;;;33.60;5.88;;;3.70;99.90;;;;;;5104142;28;20055;-71
2022/02/22 04:05:17;;;;;;;28.15;4.93;;;3.80;99.90;;;;;;5104419;28;20497;-71
2022/02/22 04:07:43;;;;;;;30.95;4.53;;;3.80;99.90;;;;;;5103856;28;20055;-71
2022/02/22 04:10:10;;;;;;;26.83;4.20;;;3.70;99.90;;;;;;5103452;28;20103;-71
2022/02/22 04:12:36;;;;;;;26.30;4.20;;;3.50;99.90;;;;;;5090070;28;20044;-71
2022/02/22 04:15:03;;;;;;;30.30;5.07;;;3.60;99.90;;;;;;5098068;28;20126;-71
2022/02/22 04:17:29;;;;;;;30.38;5.05;;;3.50;99.90;;;;;;5103842;28;20048;-71
2022/02/22 04:19:55;;;;;;;29.48;5.75;;;3.50;99.90;;;;;;5095857;28;20064;-71
2022/02/22 04:22:22;;;;;;;27.63;5.07;;;3.60;99.90;;;;;;5090452;28;20103;-71
2022/02/22 04:24:48;;;;;;;25.85;5.10;;;3.70;99.90;;;;;;5091446;28;20549;-71
2022/02/22 04:27:14;;;;;;;23.88;4.10;;;3.50;99.90;;;;;;5105340;28;20040;-71
2022/02/22 04:29:40;;;;;;;25.83;4.47;;;3.60;99.90;;;;;;5104039;28;20547;-71
2022/02/22 04:32:07;;;;;;;25.63;5.53;;;3.40;99.90;;;;;;5104421;28;20420;-71
2022/02/22 04:34:33;;;;;;;34.53;5.25;;;3.60;99.90;;;;;;5102809;28;20144;-71
2022/02/22 04:36:59;;;;;;;26.38;4.38;;;3.40;99.90;;;;;;5104788;28;20492;-71
2022/02/22 04:39:24;;;;;;;27.52;4.45;;;3.50;99.90;;;;;;5104939;28;20059;-71
2022/02/22 04:41:50;;;;;;;28.40;5.32;;;3.50;99.90;;;;;;5096679;28;20079;-71
2022/02/22 04:44:17;;;;;;;24.17;4.63;;;3.50;99.90;;;;;;5104209;28;20055;-71
2022/02/22 04:46:43;;;;;;;30.38;5.10;;;3.40;99.90;;;;;;5102227;28;20519;-71
2022/02/22 04:49:09;;;;;;;22.38;4.38;;;3.20;99.90;;;;;;5102912;28;20040;-71
2022/02/22 04:51:36;;;;;;;29.80;5.57;;;3.20;99.90;;;;;;5101258;28;20040;-71
2022/02/22 04:54:02;;;;;;;30.42;4.30;;;3.40;99.90;;;;;;5103320;28;20044;-71
2022/02/22 04:56:28;;;;;;;23.23;4.40;;;3.30;99.90;;;;;;5104012;28;20040;-71
2022/02/22 04:58:55;;;;;;;25.88;4.45;;;3.10;99.90;;;;;;5103210;28;20043;-71
2022/02/22 05:01:22;;;;;;;23.95;4.88;;;3.20;99.90;;;;;;5103686;28;20050;-71
2022/02/22 05:03:48;;;;;;;21.70;3.88;;;3.20;99.90;;;;;;5103100;28;20059;-71
2022/02/22 05:06:13;;;;;;;29.30;5.22;;;3.20;99.90;;;;;;5103628;28;20119;-71
2022/02/22 05:08:39;;;;;;;23.58;4.55;;;3.40;99.90;;;;;;5102084;28;20123;-71
2022/02/22 05:11:05;;;;;;;29.30;5.55;;;3.30;99.90;;;;;;5096729;28;20053;-71
2022/02/22 05:13:31;;;;;;;35.50;5.93;;;3.50;99.90;;;;;;5096300;28;20435;-71
2022/02/22 05:15:57;;;;;;;21.75;4.63;;;3.30;99.90;;;;;;5101178;28;20062;-71
2022/02/22 05:18:23;;;;;;;36.53;4.97;;;3.50;99.90;;;;;;5097278;28;20094;-71
2022/02/22 05:20:54;;;;;;;26.27;4.20;;;3.40;99.90;;;;;;5106417;28;20044;-71
2022/02/22 05:23:25;;;;;;;29.08;4.85;;;3.50;99.90;;;;;;5106689;28;20090;-71
2022/02/22 05:25:51;;;;;;;29.23;6.28;;;3.40;99.90;;;;;;5101365;28;20036;-71
2022/02/22 05:28:18;;;;;;;29.05;4.78;;;3.50;99.90;;;;;;5105162;28;20104;-70
2022/02/22 05:30:47;;;;;;;28.02;6.20;;;3.40;99.90;;;;;;5107661;28;20078;-71
2022/02/22 05:33:13;;;;;;;25.33;4.93;;;3.60;99.90;;;;;;5101067;28;20063;-71
2022/02/22 05:35:39;;;;;;;29.60;4.57;;;3.60;99.90;;;;;;5108086;28;20050;-71
2022/02/22 05:38:05;;;;;;;25.77;4.88;;;3.80;99.90;;;;;;5104098;28;20095;-71
2022/02/22 05:40:30;;;;;;;29.52;5.45;;;3.60;99.90;;;;;;5106957;28;20051;-71
2022/02/22 05:42:56;;;;;;;30.02;4.30;;;3.70;99.90;;;;;;5106635;28;20144;-71
2022/02/22 05:45:22;;;;;;;36.50;5.53;;;3.60;99.90;;;;;;5107329;28;20446;-71
2022/02/22 05:47:47;;;;;;;20.83;4.03;;;3.60;99.90;;;;;;5107605;28;20048;-71
2022/02/22 05:50:13;;;;;;;30.17;4.50;;;3.60;99.90;;;;;;5107084;28;20052;-71
2022/02/22 05:52:39;;;;;;;24.08;4.72;;;3.50;99.90;;;;;;5106743;28;20067;-71
2022/02/22 05:55:05;;;;;;;26.15;4.75;;;3.60;99.90;;;;;;5100080;28;20104;-71
2022/02/22 05:57:31;;;;;;;32.70;4.68;;;3.40;99.90;;;;;;5106888;28;20043;-71
2022/02/22 05:59:56;;;;;;;24.65;4.60;;;3.30;99.90;;;;;;5106709;28;20483;-71
2022/02/22 06:02:22;;;;;;;20.13;3.80;;;3.30;99.90;;;;;;5105318;28;20212;-71
2022/02/22 06:04:48;;;;;;;24.52;4.15;;;3.50;99.90;;;;;;5105664;28;20107;-71
2022/02/22 06:07:18;;;;;;;25.98;4.75;;;3.30;99.90;;;;;;5106605;28;20043;-71
2022/02/22 06:09:43;;;;;;;23.95;4.70;;;3.30;99.90;;;;;;5097394;28;20048;-71
2022/02/22 06:12:09;;;;;;;23.77;4.30;;;3.30;99.90;;;;;;5105424;28;20108;-70
2022/02/22 06:14:35;;;;;;;29.95;4.25;;;3.10;99.90;;;;;;5104094;28;20044;-71
2022/02/22 06:17:01;;;;;;;25.17;4.13;;;3.20;99.90;;;;;;5098236;28;20082;-71
2022/02/22 06:19:26;;;;;;;25.85;4.45;;;3.20;99.90;;;;;;5101083;28;20053;-71
2022/02/22 06:21:52;;;;;;;29.75;4.57;;;3.10;99.90;;;;;;5098825;28;20048;-71
2022/02/22 06:24:18;;;;;;;30.85;5.28;;;3.10;99.90;;;;;;5105345;28;20073;-70
2022/02/22 06:26:44;;;;;;;26.50;3.92;;;3.00;99.90;;;;;;5101236;28;20102;-71
2022/02/22 06:29:10;;;;;;;30.67;4.57;;;3.10;99.90;;;;;;5104513;28;20028;-71
2022/02/22 06:31:35;;;;;;;26.85;4.90;;;3.20;99.90;;;;;;5105213;28;20176;-71
2022/02/22 06:34:04;;;;;;;30.40;4.93;;;3.30;99.90;;;;;;5104452;28;20051;-72
2022/02/22 06:36:31;;;;;;;27.15;5.43;;;3.30;99.90;;;;;;5048799;28;20108;-70
2022/02/22 06:38:56;;;;;;;26.90;4.53;;;3.30;99.90;;;;;;5103587;28;20056;-71
2022/02/22 06:41:22;;;;;;;26.52;4.20;;;3.10;99.90;;;;;;5101149;28;20070;-71
2022/02/22 06:43:48;;;;;;;25.52;4.05;;;3.10;99.90;;;;;;5099393;28;20124;-71
2022/02/22 06:46:13;;;;;;;30.08;5.72;;;3.20;99.90;;;;;;5099903;28;20044;-70
2022/02/22 06:48:39;;;;;;;32.03;4.93;;;3.20;99.90;;;;;;5104974;28;20060;-70
2022/02/22 06:51:07;;;;;;;18.98;3.97;;;3.00;99.90;;;;;;5103495;28;20044;-71
2022/02/22 06:53:34;;;;;;;27.17;5.82;;;3.30;99.90;;;;;;5102745;28;20075;-70
2022/02/22 06:55:59;;;;;;;29.27;4.45;;;3.10;99.90;;;;;;5098174;28;20074;-70
2022/02/22 06:58:25;;;;;;;31.00;4.80;;;3.40;99.90;;;;;;5086737;28;20056;-70
2022/02/22 07:00:51;;;;;;;31.55;6.32;;;3.40;99.90;;;;;;5103704;28;20529;-71
2022/02/22 07:03:17;;;;;;;29.33;5.30;;;3.30;99.90;;;;;;5104645;28;20048;-71
2022/02/22 07:05:44;;;;;;;23.70;4.63;;;3.10;99.90;;;;;;5100645;28;20059;-71
2022/02/22 07:08:09;;;;;;;29.48;4.75;;;3.40;99.90;;;;;;5103834;28;20050;-71
2022/02/22 07:10:35;;;;;;;32.63;5.20;;;3.40;99.90;;;;;;5103938;28;20044;-71
2022/02/22 07:13:01;;;;;;;30.60;4.40;;;3.20;99.90;;;;;;5098985;28;20048;-71
2022/02/22 07:15:27;;;;;;;28.35;4.75;;;3.40;99.90;;;;;;5084632;28;20310;-70
2022/02/22 07:17:56;;;;;;;26.30;4.45;;;3.30;99.90;;;;;;5099941;28;20044;-70
2022/02/22 07:20:24;;;;;;;33.03;5.60;;;3.20;99.90;;;;;;5104271;28;20040;-71
2022/02/22 07:22:50;;;;;;;25.15;5.05;;;3.50;99.90;;;;;;5101397;28;20048;-71
2022/02/22 07:25:18;;;;;;;31.15;5.35;;;3.40;99.90;;;;;;5081575;28;20135;-71
2022/02/22 07:27:45;;;;;;;30.10;4.88;;;3.30;99.90;;;;;;5099844;28;20062;-71
2022/02/22 07:30:12;;;;;;;40.13;4.45;;;3.60;99.90;;;;;;5103295;28;20028;-70
2022/02/22 07:32:39;;;;;;;30.55;4.50;;;3.60;99.90;;;;;;5102464;28;20056;-70
2022/02/22 07:35:06;;;;;;;29.45;5.97;;;3.60;99.90;;;;;;5101684;28;20080;-71
2022/02/22 07:37:33;;;;;;;35.58;5.13;;;3.80;99.90;;;;;;5100260;28;20067;-71
2022/02/22 07:39:59;;;;;;;35.17;4.35;;;3.80;99.90;;;;;;5102785;28;20040;-71
2022/02/22 07:42:25;;;;;;;36.75;7.60;;;4.20;99.90;;;;;;5088268;28;20048;-70
2022/02/22 07:44:51;;;;;;;36.17;6.05;;;4.00;99.90;;;;;;5081986;28;20039;-72
2022/02/22 07:47:17;;;;;;;25.70;4.72;;;4.20;99.90;;;;;;5081460;28;20095;-72
2022/02/22 07:49:44;;;;;;;34.28;4.50;;;4.20;99.90;;;;;;5087647;28;20130;-72
2022/02/22 07:52:10;;;;;;;31.95;5.25;;;4.00;99.90;;;;;;5097255;28;20066;-72
2022/02/22 07:54:36;;;;;;;29.00;5.38;;;4.00;99.90;;;;;;5097704;28;20044;-72
2022/02/22 07:57:02;;;;;;;35.40;4.63;;;4.20;99.90;;;;;;5081968;28;20059;-71
2022/02/22 07:59:28;;;;;;;33.42;4.50;;;4.10;99.90;;;;;;5088852;28;20059;-71
2022/02/22 08:01:53;;;;;;;27.50;5.22;;;4.10;99.90;;;;;;5081245;28;20051;-71
2022/02/22 08:04:20;;;;;;;29.25;4.28;;;4.20;99.90;;;;;;5085690;28;20052;-71
2022/02/22 08:06:46;;;;;;;35.92;6.20;;;4.30;99.90;;;;;;5084729;28;20050;-71
2022/02/22 08:09:12;;;;;;;30.65;5.65;;;4.30;99.90;;;;;;5074249;28;20044;-71
2022/02/22 08:11:38;;;;;;;37.65;5.18;;;4.40;99.90;;;;;;5085242;28;20075;-72
2022/02/22 08:14:05;;;;;;;32.45;5.35;;;4.50;99.90;;;;;;5094224;28;20032;-72
2022/02/22 08:16:31;;;;;;;28.75;5.75;;;4.40;99.90;;;;;;5089265;28;20086;-71
2022/02/22 08:18:57;;;;;;;35.45;5.32;;;4.30;99.90;;;;;;5087569;28;20040;-69
2022/02/22 08:21:23;;;;;;;23.83;5.32;;;4.50;99.90;;;;;;5088244;28;20052;-70
2022/02/22 08:23:50;;;;;;;30.52;5.15;;;4.60;99.90;;;;;;5095208;28;20033;-74
2022/02/22 08:26:18;;;;;;;34.13;4.75;;;4.40;99.90;;;;;;5085125;28;20102;-70
2022/02/22 08:28:45;;;;;;;32.25;5.53;;;4.50;99.90;;;;;;5063646;28;20055;-70
2022/02/22 08:31:11;;;;;;;25.38;5.60;;;4.60;99.90;;;;;;5085125;28;20055;-70
2022/02/22 08:33:37;;;;;;;22.55;5.22;;;4.70;99.90;;;;;;5080930;28;20445;-69
2022/02/22 08:36:02;;;;;;;26.48;3.95;;;4.70;99.90;;;;;;5081506;28;20049;-71
2022/02/22 08:38:28;;;;;;;30.63;4.50;;;4.80;99.90;;;;;;5106510;28;20078;-69
2022/02/22 08:40:54;;;;;;;29.45;5.53;;;4.80;99.90;;;;;;5066713;28;20142;-69
2022/02/22 08:43:20;;;;;;;26.30;5.35;;;4.90;99.90;;;;;;5081810;28;20048;-69
2022/02/22 08:45:46;;;;;;;25.52;4.88;;;5.10;99.90;;;;;;5088441;28;20142;-71
2022/02/22 08:48:13;;;;;;;29.00;5.22;;;5.10;99.90;;;;;;5069324;28;20055;-69
2022/02/22 08:50:39;;;;;;;31.73;4.55;;;5.00;99.90;;;;;;5093124;28;20064;-69
2022/02/22 08:53:05;;;;;;;25.20;5.55;;;5.00;99.90;;;;;;5085503;28;20105;-69
2022/02/22 08:55:31;;;;;;;28.70;4.95;;;5.10;99.90;;;;;;5088439;28;20486;-69
2022/02/22 08:57:58;;;;;;;30.80;5.25;;;5.20;99.90;;;;;;5083972;28;20253;-69
2022/02/22 09:00:24;;;;;;;25.40;4.38;;;5.50;99.90;;;;;;5087292;28;20045;-70
2022/02/22 09:02:57;;;;;;;19.48;4.80;;;5.40;99.90;;;;;;5084132;28;20043;-69
2022/02/22 09:05:25;;;;;;;26.20;5.30;;;5.70;99.90;;;;;;5083025;28;20539;-70
2022/02/22 09:07:51;;;;;;;27.08;4.50;;;5.80;99.90;;;;;;5082995;28;20091;-69
2022/02/22 09:10:17;;;;;;;31.45;5.25;;;5.90;99.90;;;;;;5086444;28;20059;-69
2022/02/22 09:12:43;;;;;;;28.80;4.80;;;5.90;99.90;;;;;;5074424;28;20147;-69
2022/02/22 09:15:11;;;;;;;25.63;5.40;;;5.90;99.90;;;;;;5087997;28;20577;-70
2022/02/22 09:17:37;;;;;;;29.00;4.10;;;6.00;99.90;;;;;;5079204;28;20059;-70
2022/02/22 09:20:05;;;;;;;23.02;4.90;;;6.00;99.90;;;;;;5088302;28;20248;-70
2022/02/22 09:22:31;;;;;;;24.58;6.18;;;6.10;99.90;;;;;;5076468;28;20059;-70
2022/02/22 09:24:57;;;;;;;27.35;4.95;;;6.00;99.90;;;;;;5059812;28;20052;-70
2022/02/22 09:27:22;;;;;;;26.65;6.40;;;6.10;99.90;;;;;;5081356;28;20059;-70
2022/02/22 09:29:48;;;;;;;26.27;4.47;;;6.30;99.90;;;;;;5085383;28;20053;-70
2022/02/22 09:32:14;;;;;;;24.27;4.45;;;6.30;99.90;;;;;;5079689;28;20064;-69
2022/02/22 09:34:41;;;;;;;24.42;5.10;;;6.40;99.90;;;;;;5087904;28;20090;-70
2022/02/22 09:37:06;;;;;;;23.98;4.57;;;6.20;99.90;;;;;;5075009;28;20344;-70
2022/02/22 09:39:32;;;;;;;25.38;5.25;;;6.40;99.90;;;;;;5066306;28;20050;-70
2022/02/22 09:41:58;;;;;;;30.70;5.35;;;6.30;99.90;;;;;;5049343;28;20036;-70
2022/02/22 09:44:24;;;;;;;25.02;4.93;;;6.20;99.90;;;;;;5096951;28;20567;-70
2022/02/22 09:46:50;;;;;;;27.00;4.60;;;6.30;99.90;;;;;;5082171;28;20230;-70
2022/02/22 09:49:16;;;;;;;23.90;4.47;;;6.40;99.90;;;;;;5082697;28;20482;-70
2022/02/22 09:51:42;;;;;;;20.55;5.20;;;6.30;99.90;;;;;;5089151;28;20051;-69
2022/02/22 09:54:08;;;;;;;22.05;4.57;;;6.40;99.90;;;;;;5084373;28;20496;-70
2022/02/22 09:56:46;;;;;;;23.15;4.55;;;6.50;99.90;;;;;;5083911;28;20055;-70
2022/02/22 09:59:13;;;;;;;24.35;5.50;;;6.50;99.90;;;;;;5080586;28;20047;-70
2022/02/22 10:01:43;;;;;;;20.38;5.32;;;6.50;99.90;;;;;;5084462;28;20063;-72
2022/02/22 10:04:10;;;;;;;19.35;5.60;;;6.40;99.90;;;;;;5082723;28;20082;-69
2022/02/22 10:06:36;;;;;;;19.45;4.95;;;6.60;99.90;;;;;;5069273;28;20048;-70
2022/02/22 10:09:03;;;;;;;20.00;5.70;;;6.50;99.90;;;;;;5069155;28;20537;-70
2022/02/22 10:11:30;;;;;;;22.60;6.45;;;6.70;99.90;;;;;;5089652;28;20048;-70
2022/02/22 10:14:01;;;;;;;20.45;5.97;;;6.50;99.90;;;;;;5097955;28;20056;-70
2022/02/22 10:16:37;;;;;;;21.92;5.72;;;6.70;99.90;;;;;;5087548;28;20094;-70
2022/02/22 10:19:03;;;;;;;24.67;6.88;;;6.70;99.90;;;;;;5091660;28;20052;-70
2022/02/22 10:21:40;;;;;;;27.88;6.90;;;6.50;99.90;;;;;;5078268;28;20139;-70
2022/02/22 10:24:07;;;;;;;18.42;6.03;;;6.80;99.90;;;;;;5095307;28;20055;-70
2022/02/22 10:26:33;;;;;;;25.60;6.32;;;6.90;99.90;;;;;;5086967;28;20048;-70
2022/02/22 10:29:11;;;;;;;27.02;6.55;;;6.80;99.90;;;;;;5084723;28;20051;-69
2022/02/22 10:31:38;;;;;;;28.45;7.40;;;6.90;99.90;;;;;;5078118;28;20047;-69
2022/02/22 10:34:03;;;;;;;25.40;7.20;;;6.80;99.90;;;;;;5085210;28;20713;-69
2022/02/22 10:36:37;;;;;;;26.83;6.68;;;7.00;99.90;;;;;;5082024;28;20036;-70
2022/02/22 10:39:06;;;;;;;27.58;6.90;;;7.00;99.90;;;;;;5070425;28;20587;-70
2022/02/22 10:41:42;;;;;;;31.90;7.85;;;6.90;99.90;;;;;;5070428;28;20052;-70
2022/02/22 10:44:10;;;;;;;24.65;6.22;;;6.90;99.90;;;;;;5082499;28;20331;-70
2022/02/22 10:46:40;;;;;;;24.65;7.00;;;7.00;99.90;;;;;;5076704;28;20076;-70
2022/02/22 10:49:13;;;;;;;28.17;6.88;;;7.20;99.90;;;;;;5095324;28;20044;-69
2022/02/22 10:51:44;;;;;;;28.83;6.88;;;7.20;99.90;;;;;;5087664;28;20058;-69
2022/02/22 10:54:18;;;;;;;37.58;7.90;;;7.20;99.90;;;;;;5113024;27;20535;-69
2022/02/22 10:56:45;;;;;;;27.40;7.68;;;7.20;99.90;;;;;;5089367;28;20057;-69
2022/02/22 10:59:11;;;;;;;26.52;6.47;;;7.20;99.90;;;;;;5095815;28;20116;-70
2022/02/22 11:01:37;;;;;;;28.00;8.43;;;7.30;99.90;;;;;;5086414;28;20456;-69
2022/02/22 11:04:04;;;;;;;27.80;7.25;;;7.40;99.90;;;;;;5085989;28;20048;-71
2022/02/22 11:06:30;;;;;;;23.63;6.05;;;7.40;99.90;;;;;;5081819;28;20075;-70
2022/02/22 11:08:57;;;;;;;19.48;6.78;;;7.60;99.90;;;;;;5089487;28;20256;-71
2022/02/22 11:11:27;;;;;;;33.03;8.70;;;7.50;99.90;;;;;;5084820;28;20043;-69
2022/02/22 11:14:01;;;;;;;20.60;6.25;;;7.60;99.90;;;;;;5088959;28;20075;-68
2022/02/22 11:16:47;;;;;;;26.70;6.43;;;7.60;99.90;;;;;;5085234;28;20044;-69
2022/02/22 11:19:20;;;;;;;23.63;6.88;;;7.50;99.90;;;;;;5084479;28;20040;-68
2022/02/22 11:22:07;;;;;;;26.75;7.07;;;7.40;99.90;;;;;;5089857;28;20117;-69
2022/02/22 11:24:49;;;;;;;31.40;5.80;;;7.50;99.90;;;;;;5094098;28;20135;-69
2022/02/22 11:27:36;;;;;;;20.35;5.45;;;7.60;99.90;;;;;;5088881;28;20051;-69
2022/02/22 11:30:15;;;;;;;26.48;5.97;;;7.60;99.90;;;;;;5082235;28;20052;-69
2022/02/22 11:33:06;;;;;;;24.48;6.38;;;7.70;99.90;;;;;;5085171;28;20606;-69
2022/02/22 11:35:47;;;;;;;22.02;5.72;;;7.70;99.90;;;;;;5087746;28;20051;-69
2022/02/22 11:38:14;;;;;;;24.40;5.32;;;7.80;99.90;;;;;;5075689;28;20036;-69
2022/02/22 11:40:41;;;;;;;31.80;6.88;;;7.70;99.90;;;;;;5078436;28;20076;-69
2022/02/22 11:43:17;;;;;;;28.48;6.30;;;7.80;99.90;;;;;;5097153;28;20109;-72
2022/02/22 11:45:46;;;;;;;27.33;5.90;;;7.70;99.90;;;;;;5096228;28;20063;-69
2022/02/22 11:48:17;;;;;;;26.42;6.28;;;7.80;99.90;;;;;;5090010;28;20079;-70
2022/02/22 11:50:44;;;;;;;24.55;5.72;;;7.60;99.90;;;;;;5091206;28;20052;-69
2022/02/22 11:53:12;;;;;;;24.00;5.03;;;7.70;99.90;;;;;;5088189;28;20072;-68
2022/02/22 11:55:38;;;;;;;25.20;5.10;;;7.80;99.90;;;;;;5088506;28;20182;-69
2022/02/22 11:58:14;;;;;;;29.45;5.30;;;7.90;99.90;;;;;;5088828;28;20056;-69
2022/02/22 12:00:44;;;;;;;31.58;5.55;;;7.70;99.90;;;;;;5093324;28;20077;-69
2022/02/22 12:03:12;;;;;;;22.30;5.03;;;7.80;99.90;;;;;;5083832;28;20054;-69
2022/02/22 12:05:41;;;;;;;31.02;6.60;;;7.80;99.90;;;;;;5091005;28;20129;-69
2022/02/22 12:08:10;;;;;;;32.25;7.10;;;7.70;99.90;;;;;;5089946;28;20047;-69
2022/02/22 12:10:55;;;;;;;24.48;6.07;;;7.50;99.90;;;;;;5069387;28;20041;-69
2022/02/22 12:13:23;;;;;;;25.25;5.88;;;7.50;99.90;;;;;;5071125;28;20059;-68
2022/02/22 12:15:51;;;;;;;29.63;6.13;;;7.50;99.90;;;;;;5094671;28;20081;-68
2022/02/22 12:18:22;;;;;;;26.88;5.72;;;7.40;99.90;;;;;;5072200;28;20055;-69
2022/02/22 12:20:51;;;;;;;23.08;6.82;;;7.30;99.90;;;;;;5094706;28;20059;-69
2022/02/22 12:23:25;;;;;;;27.02;6.30;;;7.30;99.90;;;;;;5087474;28;20060;-69
2022/02/22 12:25:54;;;;;;;28.27;7.13;;;7.30;99.90;;;;;;5091871;28;20064;-69
2022/02/22 12:28:23;;;;;;;34.83;7.13;;;7.40;99.90;;;;;;5087236;28;20043;-68
2022/02/22 12:30:50;;;;;;;28.38;7.38;;;7.20;99.90;;;;;;5099952;28;20040;-69
2022/02/22 12:33:17;;;;;;;29.13;7.85;;;7.20;99.90;;;;;;5082263;28;20059;-68
2022/02/22 12:35:46;;;;;;;34.78;8.20;;;7.20;99.90;;;;;;5087063;28;20068;-69
2022/02/22 12:38:12;;;;;;;33.90;8.80;;;7.30;99.90;;;;;;5076021;28;20058;-69
2022/02/22 12:40:38;;;;;;;33.90;7.70;;;7.10;99.90;;;;;;5077536;28;20051;-69
2022/02/22 12:43:06;;;;;;;36.78;8.68;;;7.20;99.90;;;;;;5063308;28;20079;-69
2022/02/22 12:45:37;;;;;;;28.45;7.97;;;7.30;99.90;;;;;;5087951;28;20504;-68
2022/02/22 12:48:04;;;;;;;31.15;7.88;;;7.10;99.90;;;;;;5077497;28;20056;-68